Time;durP1;ratioP1;P1;durP2;ratioP2;P2;SDS_P1;SDS_P2;PMS_P1;PMS_P2;Temp;Humidity;BMP_temperature;BMP_pressure;BME280_temperature;BME280_humidity;BME280_pressure;Samples;Min_cycle;Max_cycle;Signal;HPM_P1;HPM_P2
2021/12/01 00:00:34;;;;;;;9.77;4.95;;;5.70;99.90;;;5.82;60.16;96994.28;6046323;23;20078;-82
2021/12/01 00:03:09;;;;;;;10.38;3.53;;;5.70;99.90;;;5.81;59.58;96990.00;6079862;23;20018;-82
2021/12/01 00:05:35;;;;;;;8.35;2.70;;;5.70;99.90;;;5.78;59.48;97003.25;6047071;23;20566;-83
2021/12/01 00:08:01;;;;;;;12.13;3.67;;;5.70;99.90;;;5.76;59.20;97022.34;6044986;23;20098;-83
2021/12/01 00:10:28;;;;;;;8.43;3.05;;;5.70;99.90;;;5.74;60.12;97021.81;6022478;23;20312;-82
2021/12/01 00:12:54;;;;;;;8.82;3.53;;;5.70;99.90;;;5.79;60.11;97019.06;6047434;23;20019;-82
2021/12/01 00:15:20;;;;;;;8.90;3.15;;;5.60;99.90;;;5.86;59.92;97018.75;6047471;23;20173;-82
2021/12/01 00:17:46;;;;;;;9.23;3.88;;;5.70;99.90;;;5.82;59.49;97031.97;6047136;23;20015;-83
2021/12/01 00:20:16;;;;;;;14.68;4.40;;;5.70;99.90;;;5.83;59.28;97038.97;6047058;23;20027;-82
2021/12/01 00:22:42;;;;;;;8.75;4.03;;;5.70;99.90;;;5.79;59.79;97037.91;6047527;23;20027;-82
2021/12/01 00:25:09;;;;;;;15.75;3.65;;;5.80;99.90;;;5.87;58.93;96980.78;6048803;23;20054;-82
2021/12/01 00:27:35;;;;;;;11.48;3.47;;;5.80;99.90;;;5.93;59.23;97046.13;6046264;23;20026;-82
2021/12/01 00:30:02;;;;;;;10.13;3.17;;;5.70;99.90;;;5.95;59.62;97043.16;6046111;23;20556;-82
2021/12/01 00:32:28;;;;;;;9.95;3.20;;;5.80;99.90;;;5.82;59.80;97064.25;6046076;23;20026;-82
2021/12/01 00:34:58;;;;;;;12.60;3.85;;;5.80;99.90;;;5.79;60.63;97064.81;6070106;23;20787;-82
2021/12/01 00:37:24;;;;;;;8.88;3.28;;;5.80;99.90;;;5.76;60.87;97067.28;6046379;23;20019;-82
2021/12/01 00:39:50;;;;;;;6.00;2.33;;;5.70;99.90;;;5.75;61.81;97085.31;6047732;23;20068;-82
2021/12/01 00:42:18;;;;;;;8.82;3.22;;;5.70;99.90;;;5.73;61.69;97097.47;6047868;23;20025;-82
2021/12/01 00:44:47;;;;;;;12.07;3.22;;;5.60;99.90;;;5.64;61.86;97105.31;6046024;23;20063;-82
2021/12/01 00:47:14;;;;;;;9.48;2.65;;;5.60;99.90;;;5.61;62.37;97111.28;6046999;23;20018;-82
2021/12/01 00:49:40;;;;;;;8.05;3.30;;;5.60;99.90;;;5.56;62.08;97100.56;6069867;23;20074;-82
2021/12/01 00:52:08;;;;;;;8.63;3.97;;;5.60;99.90;;;5.63;61.65;97098.34;6045130;23;20023;-82
2021/12/01 00:54:34;;;;;;;12.65;3.70;;;5.60;99.90;;;5.68;61.78;97124.41;6045657;23;20019;-83
2021/12/01 00:57:00;;;;;;;10.93;2.63;;;5.60;99.90;;;5.64;61.81;97133.03;6045994;23;20025;-82
2021/12/01 00:59:26;;;;;;;9.43;3.78;;;5.50;99.90;;;5.64;61.86;97142.97;6045777;23;20383;-82
2021/12/01 01:01:52;;;;;;;14.85;3.35;;;5.60;99.90;;;5.65;62.32;97145.41;6043935;23;20018;-82
2021/12/01 01:04:18;;;;;;;12.73;3.95;;;5.60;99.90;;;5.74;62.01;97147.47;6044422;23;20089;-82
2021/12/01 01:06:44;;;;;;;9.85;3.50;;;5.60;99.90;;;5.67;61.62;97158.56;6044302;23;20177;-82
2021/12/01 01:09:10;;;;;;;13.13;3.65;;;5.60;99.90;;;5.71;61.50;97162.28;6046380;23;20146;-83
2021/12/01 01:17:13;;;;;;;15.88;3.92;;;5.50;99.90;;;5.62;61.63;97161.28;6058492;23;20043;-82
2021/12/01 01:19:39;;;;;;;13.38;3.72;;;5.50;99.90;;;5.66;61.06;97156.97;6047294;23;20098;-82
2021/12/01 01:22:06;;;;;;;15.68;3.33;;;5.50;99.90;;;5.73;60.87;97170.09;6023290;23;20015;-82
2021/12/01 01:24:32;;;;;;;11.57;3.40;;;5.50;99.90;;;5.70;60.27;97171.47;6045645;23;20050;-82
2021/12/01 01:26:58;;;;;;;9.93;3.30;;;5.50;99.90;;;5.72;60.57;97187.31;6046228;23;20023;-82
2021/12/01 01:29:25;;;;;;;9.82;3.38;;;5.60;99.90;;;5.73;60.55;97183.56;6046438;23;20086;-82
2021/12/01 01:31:54;;;;;;;17.35;4.07;;;5.50;99.90;;;5.77;60.87;97196.13;6022990;23;20829;-82
2021/12/01 01:34:20;;;;;;;13.65;3.72;;;5.60;99.90;;;5.85;60.30;97203.63;6044844;23;20023;-82
2021/12/01 01:36:46;;;;;;;14.82;3.30;;;5.60;99.90;;;5.86;59.64;97215.97;6044883;23;20070;-82
2021/12/01 01:39:12;;;;;;;6.03;2.85;;;5.60;99.90;;;5.78;59.22;97207.72;6045030;23;20019;-82
2021/12/01 01:41:38;;;;;;;12.13;3.85;;;5.60;99.90;;;5.77;59.70;97231.09;6024073;23;20327;-81
2021/12/01 01:44:04;;;;;;;11.30;3.47;;;5.60;99.90;;;5.71;59.83;97240.31;6045913;23;20053;-82
2021/12/01 01:46:36;;;;;;;5.55;2.70;;;5.60;99.90;;;5.61;62.39;97262.72;6020821;23;20022;-83
2021/12/01 01:49:09;;;;;;;14.43;4.20;;;5.60;99.90;;;5.18;64.96;97264.28;6044880;23;20387;-83
2021/12/01 01:51:35;;;;;;;12.85;3.20;;;5.30;99.90;;;4.84;66.06;97253.44;6033563;23;20576;-83
2021/12/01 01:54:01;;;;;;;11.02;3.72;;;4.90;99.90;;;4.52;66.23;97270.69;6046446;23;20026;-83
2021/12/01 01:56:27;;;;;;;12.27;3.83;;;4.60;99.90;;;4.28;66.80;97273.16;6023821;23;20447;-84
2021/12/01 01:58:53;;;;;;;17.27;4.78;;;4.40;99.90;;;4.29;67.75;97275.56;6022539;23;20050;-84
2021/12/01 02:03:51;;;;;;;9.68;4.47;;;4.20;99.90;;;4.14;68.29;97276.38;6056480;23;20443;-83
2021/12/01 02:06:22;;;;;;;11.75;4.93;;;4.10;99.90;;;4.02;68.89;97283.06;6044466;23;20019;-82
2021/12/01 02:08:50;;;;;;;12.18;3.75;;;4.10;99.90;;;4.02;68.98;97278.53;6055834;23;20023;-83
2021/12/01 02:11:17;;;;;;;22.83;4.22;;;4.00;99.90;;;4.00;69.07;97285.25;6045441;23;20023;-82
2021/12/01 02:13:44;;;;;;;14.60;4.78;;;3.90;99.90;;;4.11;69.03;97295.69;6042080;23;20015;-82
2021/12/01 02:16:11;;;;;;;10.65;4.55;;;3.90;99.90;;;4.21;68.67;97302.16;6016935;23;20031;-82
2021/12/01 02:18:39;;;;;;;14.50;4.40;;;3.90;99.90;;;4.23;68.85;97300.00;6040639;23;20019;-82
2021/12/01 02:21:14;;;;;;;13.10;4.13;;;4.00;99.90;;;4.27;68.98;97301.06;6041584;23;20023;-82
2021/12/01 02:23:47;;;;;;;13.68;5.25;;;4.00;99.90;;;4.33;69.22;97308.06;6064472;23;20026;-83
2021/12/01 02:26:15;;;;;;;17.05;5.43;;;4.10;99.90;;;4.40;68.42;97313.13;6040535;23;20093;-82
2021/12/01 02:28:46;;;;;;;11.05;5.45;;;4.10;99.90;;;4.42;68.75;97310.97;6019146;23;20569;-82
2021/12/01 02:31:12;;;;;;;16.35;5.57;;;4.10;99.90;;;4.44;68.54;97320.38;6028572;23;20396;-82
2021/12/01 02:33:40;;;;;;;8.23;4.25;;;4.10;99.90;;;4.42;67.96;97316.34;6041974;23;20332;-82
2021/12/01 02:36:11;;;;;;;20.40;3.45;;;4.20;99.90;;;4.46;67.77;97309.38;6017573;23;20031;-82
2021/12/01 02:38:40;;;;;;;11.20;3.47;;;4.20;99.90;;;4.53;66.97;97317.97;6050070;23;20113;-82
2021/12/01 02:41:09;;;;;;;15.05;4.20;;;4.30;99.90;;;4.54;67.18;97320.38;6041530;23;20314;-82
2021/12/01 02:43:35;;;;;;;11.65;3.63;;;4.40;99.90;;;4.55;66.63;97322.00;6017648;23;20118;-83
2021/12/01 02:46:02;;;;;;;5.70;2.60;;;4.40;99.90;;;4.61;66.24;97325.47;6041201;23;20094;-82
2021/12/01 02:48:29;;;;;;;8.38;3.08;;;4.40;99.90;;;4.61;66.34;97327.34;6040409;23;20024;-82
2021/12/01 02:50:56;;;;;;;7.50;3.25;;;4.50;99.90;;;4.69;66.68;97343.72;6018733;23;20034;-82
2021/12/01 02:53:23;;;;;;;3.05;1.85;;;4.60;99.90;;;4.56;66.28;97334.34;6042438;23;20142;-83
2021/12/01 02:55:57;;;;;;;7.45;2.80;;;4.50;99.90;;;4.48;66.86;97361.72;6064917;23;20026;-83
2021/12/01 02:58:25;;;;;;;5.47;2.63;;;4.40;99.90;;;4.46;67.31;97365.75;6050447;23;20026;-83
2021/12/01 03:00:57;;;;;;;7.35;2.50;;;4.40;99.90;;;4.37;66.85;97368.16;6042365;23;20034;-82
2021/12/01 03:03:24;;;;;;;14.45;3.13;;;4.30;99.90;;;4.28;67.23;97364.41;6052872;23;20018;-83
2021/12/01 03:05:51;;;;;;;7.50;3.35;;;4.20;99.90;;;4.31;67.85;97374.63;6042370;23;20022;-83
2021/12/01 03:08:20;;;;;;;10.55;3.05;;;4.10;99.90;;;4.34;67.54;97379.44;6041326;23;20019;-83
2021/12/01 03:10:50;;;;;;;13.10;4.65;;;4.10;99.90;;;4.35;67.01;97389.94;6040700;23;20326;-82
2021/12/01 03:13:17;;;;;;;8.93;3.53;;;4.20;99.90;;;4.39;67.22;97384.00;6018161;23;20015;-83
2021/12/01 03:15:44;;;;;;;7.25;3.22;;;4.20;99.90;;;4.37;65.91;97384.28;6042236;23;20399;-82
2021/12/01 03:18:11;;;;;;;6.95;3.25;;;4.10;99.90;;;4.46;66.36;97376.50;6040951;23;20023;-82
2021/12/01 03:20:37;;;;;;;6.35;2.50;;;4.20;99.90;;;4.54;66.11;97384.81;6064470;23;20033;-82
2021/12/01 03:23:04;;;;;;;6.25;2.65;;;4.20;99.90;;;4.53;65.36;97395.84;6040367;23;20285;-82
2021/12/01 03:25:31;;;;;;;12.27;2.58;;;4.30;99.90;;;4.57;65.02;97400.38;6041682;23;20402;-82
2021/12/01 03:27:58;;;;;;;8.70;2.78;;;4.30;99.90;;;4.63;64.69;97400.38;6017214;23;20089;-82
2021/12/01 03:30:25;;;;;;;8.05;2.38;;;4.40;99.90;;;4.70;64.46;97406.28;6039623;23;20025;-82
2021/12/01 03:32:52;;;;;;;6.18;2.17;;;4.40;99.90;;;4.80;63.67;97403.59;6039762;23;20018;-82
2021/12/01 03:35:19;;;;;;;7.70;2.17;;;4.50;99.90;;;4.86;63.89;97407.91;6040062;23;20093;-82
2021/12/01 03:37:46;;;;;;;6.05;2.22;;;4.60;99.90;;;4.89;63.33;97423.47;6040526;23;20394;-82
2021/12/01 03:40:14;;;;;;;11.18;2.63;;;4.60;99.90;;;4.84;62.93;97426.19;6039669;23;20443;-82
2021/12/01 03:42:41;;;;;;;6.82;2.53;;;4.60;99.90;;;4.89;63.05;97428.06;6040514;23;20386;-82
2021/12/01 03:45:08;;;;;;;16.40;2.63;;;4.60;99.90;;;4.93;62.97;97439.84;6018133;23;20019;-82
2021/12/01 03:47:35;;;;;;;3.53;1.80;;;4.60;99.90;;;5.01;62.99;97439.31;6042652;23;20438;-82
2021/12/01 03:50:02;;;;;;;3.08;1.90;;;4.70;99.90;;;5.05;61.62;97442.28;6065360;23;20030;-82
2021/12/01 03:52:30;;;;;;;7.43;1.95;;;4.80;99.90;;;5.04;61.67;97443.34;6040036;23;20518;-82
2021/12/01 03:54:57;;;;;;;7.20;2.75;;;4.90;99.90;;;5.09;61.56;97432.56;6040329;23;20022;-82
2021/12/01 03:57:25;;;;;;;7.85;2.95;;;4.80;99.90;;;5.08;61.39;97452.47;6041162;23;20026;-82
2021/12/01 03:59:53;;;;;;;3.05;2.30;;;4.90;99.90;;;5.10;62.15;97450.34;6042689;23;20026;-82
2021/12/01 04:02:19;;;;;;;5.55;1.83;;;4.90;99.90;;;5.11;61.01;97441.19;6041327;23;20098;-82
2021/12/01 04:04:46;;;;;;;9.35;2.45;;;5.00;99.90;;;5.21;60.90;97455.41;6018481;23;20034;-82
2021/12/01 04:07:12;;;;;;;3.92;2.30;;;4.90;99.90;;;5.28;60.87;97468.56;6042141;23;20018;-82
2021/12/01 04:09:41;;;;;;;5.93;2.40;;;5.00;99.90;;;5.27;60.86;97476.94;6066127;23;20023;-82
2021/12/01 04:12:08;;;;;;;9.45;2.20;;;5.00;99.90;;;5.29;59.95;97475.59;6039059;23;20015;-82
2021/12/01 04:14:35;;;;;;;5.13;3.17;;;5.10;99.90;;;5.28;59.93;97471.25;6040330;23;20019;-82
2021/12/01 04:17:01;;;;;;;9.05;2.08;;;5.10;99.90;;;5.32;59.98;97471.53;6040383;23;20458;-82
2021/12/01 04:19:28;;;;;;;2.08;1.60;;;5.10;99.90;;;5.36;59.94;97473.38;6063724;23;20023;-82
2021/12/01 04:21:54;;;;;;;5.10;2.60;;;5.10;99.90;;;5.42;59.98;97483.06;6039989;23;20277;-82
2021/12/01 04:24:21;;;;;;;5.35;2.55;;;5.10;99.90;;;5.42;60.04;97491.16;6038269;23;20023;-82
2021/12/01 04:26:48;;;;;;;4.65;2.10;;;5.20;99.90;;;5.31;60.00;97492.22;6015662;23;20018;-82
2021/12/01 04:29:15;;;;;;;7.28;3.10;;;5.20;99.90;;;5.37;60.09;97501.13;6039673;23;20054;-82
2021/12/01 04:31:42;;;;;;;5.63;2.70;;;5.20;99.90;;;5.38;59.99;97490.06;6018809;23;20029;-82
2021/12/01 04:34:09;;;;;;;6.68;2.60;;;5.10;99.90;;;5.40;60.00;97511.31;6063719;23;20030;-82
2021/12/01 04:36:39;;;;;;;11.57;2.67;;;5.10;99.90;;;5.39;59.73;97510.53;6061694;23;20015;-82
2021/12/01 04:39:10;;;;;;;6.13;2.53;;;5.10;99.90;;;5.47;60.06;97514.53;6019110;23;20023;-82
2021/12/01 04:41:40;;;;;;;6.78;2.53;;;5.10;99.90;;;5.34;60.68;97512.38;6051066;23;20019;-81
2021/12/01 04:44:12;;;;;;;4.80;1.83;;;5.10;99.90;;;5.27;59.56;97520.75;6065530;23;20093;-82
2021/12/01 04:46:43;;;;;;;4.18;2.33;;;5.10;99.90;;;5.25;60.95;97509.44;6052345;23;20164;-82
2021/12/01 04:49:10;;;;;;;2.95;2.05;;;5.10;99.90;;;5.22;60.26;97518.88;6076596;23;20018;-82
2021/12/01 04:51:41;;;;;;;5.30;2.97;;;5.10;99.90;;;5.23;60.29;97525.03;6020099;23;20022;-81
2021/12/01 04:54:07;;;;;;;10.80;3.28;;;5.10;99.90;;;5.31;59.69;97535.25;6051751;23;20035;-81
2021/12/01 04:56:34;;;;;;;6.80;2.97;;;5.00;99.90;;;5.36;60.13;97532.56;6065095;23;20343;-81
2021/12/01 04:58:59;;;;;;;4.57;1.83;;;5.10;99.90;;;5.37;60.00;97528.00;6042430;23;20019;-81
2021/12/01 05:01:26;;;;;;;3.50;2.10;;;5.00;99.90;;;5.41;59.34;97540.63;6042246;23;20038;-82
2021/12/01 05:03:52;;;;;;;5.03;2.25;;;5.10;99.90;;;5.30;59.98;97535.53;6066924;23;20033;-82
2021/12/01 05:06:18;;;;;;;9.60;2.90;;;5.10;99.90;;;5.24;60.26;97523.97;6043009;23;20018;-82
2021/12/01 05:08:45;;;;;;;8.73;3.70;;;5.10;99.90;;;5.21;59.55;97537.94;6067024;23;20490;-82
2021/12/01 05:11:11;;;;;;;5.95;3.60;;;5.10;99.90;;;5.21;60.30;97546.00;6019629;23;20049;-82
2021/12/01 05:13:37;;;;;;;5.18;2.78;;;5.00;99.90;;;5.19;59.78;97542.78;6041885;23;20070;-81
2021/12/01 05:16:03;;;;;;;5.60;2.08;;;5.00;99.90;;;5.16;59.79;97540.63;6042764;23;20446;-81
2021/12/01 05:18:29;;;;;;;6.18;2.70;;;5.00;99.90;;;5.16;59.83;97549.50;6040128;23;20329;-81
2021/12/01 05:20:55;;;;;;;5.63;2.63;;;5.00;99.90;;;5.21;59.61;97554.06;6088834;23;20046;-81
2021/12/01 05:23:21;;;;;;;5.00;2.33;;;5.00;99.90;;;5.15;59.68;97547.91;6041302;23;20391;-81
2021/12/01 05:25:48;;;;;;;6.25;2.50;;;5.00;99.90;;;5.21;59.58;97546.00;6041963;23;20118;-81
2021/12/01 05:28:14;;;;;;;3.70;2.15;;;5.00;99.90;;;5.15;59.71;97547.09;6041940;23;20019;-81
2021/12/01 05:30:40;;;;;;;8.15;3.67;;;4.90;99.90;;;5.14;59.83;97548.16;6019400;23;20026;-81
2021/12/01 05:33:08;;;;;;;8.45;2.55;;;4.90;99.90;;;5.20;60.17;97555.97;6043145;23;20018;-80
2021/12/01 05:35:35;;;;;;;6.60;2.58;;;4.90;99.90;;;5.27;59.33;97555.69;6039152;23;20570;-80
2021/12/01 05:38:01;;;;;;;8.13;2.58;;;5.00;99.90;;;5.37;59.86;97557.59;6064126;23;20050;-80
2021/12/01 05:40:27;;;;;;;4.20;2.65;;;5.00;99.90;;;5.28;58.91;97561.88;6064441;23;20023;-80
2021/12/01 05:42:53;;;;;;;9.60;2.78;;;5.10;99.90;;;5.25;59.16;97552.47;6040519;23;20026;-80
2021/12/01 05:45:20;;;;;;;5.72;2.75;;;5.00;99.90;;;5.30;59.20;97540.91;6038960;23;20093;-80
2021/12/01 05:47:45;;;;;;;4.53;2.83;;;5.10;99.90;;;5.16;59.34;97538.75;6063256;23;20023;-79
2021/12/01 05:50:11;;;;;;;9.73;2.55;;;5.00;99.90;;;5.12;59.33;97543.06;6038442;23;20029;-79
2021/12/01 05:52:38;;;;;;;10.00;3.38;;;5.00;99.90;;;5.05;59.42;97528.28;6039448;23;20565;-79
2021/12/01 05:55:05;;;;;;;8.38;3.17;;;5.00;99.90;;;5.02;59.83;97540.38;6039231;23;20023;-79
2021/12/01 05:57:32;;;;;;;8.77;3.63;;;4.90;99.90;;;5.04;59.55;97538.22;6062089;23;20371;-79
2021/12/01 05:59:59;;;;;;;8.90;3.92;;;4.90;99.90;;;4.95;60.26;97531.75;6063884;23;20033;-78
2021/12/01 06:02:27;;;;;;;5.97;3.35;;;4.80;99.90;;;4.89;60.15;97532.84;6039659;23;20073;-79
2021/12/01 06:04:52;;;;;;;6.93;3.33;;;4.80;99.90;;;4.96;59.89;97536.88;6040163;23;20042;-80
2021/12/01 06:07:19;;;;;;;7.15;3.58;;;4.80;99.90;;;4.99;60.39;97541.72;6039143;23;20110;-80
2021/12/01 06:09:45;;;;;;;6.97;3.67;;;4.80;99.90;;;4.96;60.23;97538.75;6039005;23;20346;-79
2021/12/01 06:12:12;;;;;;;9.80;4.32;;;4.80;99.90;;;4.86;60.69;97544.09;6041216;23;20052;-79
2021/12/01 06:14:41;;;;;;;11.85;4.38;;;4.80;99.90;;;4.81;60.62;97539.56;6039207;23;20516;-79
2021/12/01 06:17:10;;;;;;;11.38;4.47;;;4.70;99.90;;;4.85;60.52;97550.56;6039617;23;20022;-79
2021/12/01 06:19:39;;;;;;;8.00;4.03;;;4.70;99.90;;;4.80;60.68;97546.00;6040018;23;20479;-79
2021/12/01 06:22:06;;;;;;;8.70;4.28;;;4.70;99.90;;;4.78;61.15;97556.19;6037889;23;20572;-79
2021/12/01 06:24:32;;;;;;;7.78;5.28;;;4.70;99.90;;;4.75;61.30;97551.34;6014635;23;20034;-79
2021/12/01 06:26:58;;;;;;;7.40;4.03;;;4.60;99.90;;;4.79;61.19;97552.44;6038492;23;20029;-79
2021/12/01 06:29:25;;;;;;;8.02;4.05;;;4.60;99.90;;;4.85;61.76;97554.06;6014958;23;20022;-79
2021/12/01 06:31:51;;;;;;;8.35;4.32;;;4.70;99.90;;;4.85;61.58;97564.00;6037815;23;20179;-79
2021/12/01 06:34:17;;;;;;;11.30;4.97;;;4.70;99.90;;;4.83;60.88;97569.63;6060977;23;20106;-79
2021/12/01 06:36:43;;;;;;;10.48;3.92;;;4.70;99.90;;;4.87;61.02;97556.50;6037502;23;20094;-79
2021/12/01 06:39:09;;;;;;;9.10;4.85;;;4.70;99.90;;;4.93;61.11;97572.34;6037160;23;20078;-79
2021/12/01 06:41:35;;;;;;;10.55;4.97;;;4.70;99.90;;;4.93;61.57;97572.34;6037562;23;20465;-79
2021/12/01 06:44:01;;;;;;;6.45;3.40;;;4.80;99.90;;;4.97;61.18;97580.69;6062093;23;20426;-79
2021/12/01 06:46:28;;;;;;;14.73;4.50;;;4.80;99.90;;;5.09;60.75;97583.09;6036994;23;20081;-79
2021/12/01 06:48:55;;;;;;;9.70;3.75;;;4.90;99.90;;;5.14;60.35;97577.72;6015006;23;20442;-79
2021/12/01 06:51:21;;;;;;;9.35;3.92;;;5.00;99.90;;;5.15;60.65;97572.09;6039272;23;20062;-79
2021/12/01 06:53:47;;;;;;;6.22;3.75;;;5.00;99.90;;;5.20;60.61;97574.78;6035176;23;20023;-79
2021/12/01 06:56:15;;;;;;;8.98;3.75;;;5.10;99.90;;;5.30;59.81;97578.56;6014091;23;20023;-79
2021/12/01 06:58:41;;;;;;;11.65;3.80;;;5.20;99.90;;;5.30;59.65;97573.19;6037212;23;20029;-78
2021/12/01 07:01:07;;;;;;;16.00;4.53;;;5.20;99.90;;;5.34;59.82;97574.22;6038135;23;20029;-79
2021/12/01 07:03:34;;;;;;;7.18;3.83;;;5.30;99.90;;;5.39;59.44;97567.00;6014181;23;20050;-79
2021/12/01 07:06:00;;;;;;;9.50;3.75;;;5.30;99.90;;;5.43;59.39;97565.34;6035906;23;20474;-79
2021/12/01 07:08:26;;;;;;;10.30;3.92;;;5.40;99.90;;;5.47;59.38;97557.56;6036546;23;20018;-79
2021/12/01 07:10:52;;;;;;;5.88;4.03;;;5.40;99.90;;;5.51;59.04;97553.25;6015567;23;20022;-79
2021/12/01 07:13:18;;;;;;;9.23;5.32;;;5.30;99.90;;;5.52;58.97;97559.44;6035108;23;20105;-79
2021/12/01 07:15:44;;;;;;;7.47;4.53;;;5.40;99.90;;;5.51;58.95;97557.81;6010399;23;20424;-79
2021/12/01 07:18:10;;;;;;;6.97;3.95;;;5.40;99.90;;;5.52;58.58;97554.88;6059508;23;20074;-80
2021/12/01 07:20:37;;;;;;;12.77;4.88;;;5.40;99.90;;;5.53;58.28;97550.31;6035727;23;20449;-79
2021/12/01 07:23:03;;;;;;;9.00;5.18;;;5.50;99.90;;;5.59;57.99;97549.19;6035750;23;20037;-79
2021/12/01 07:25:30;;;;;;;11.75;4.72;;;5.40;99.90;;;5.60;58.26;97551.63;6035260;23;20042;-79
2021/12/01 07:27:57;;;;;;;9.80;4.97;;;5.40;99.90;;;5.66;58.06;97550.53;6035473;23;20090;-79
2021/12/01 07:30:23;;;;;;;9.20;4.15;;;5.50;99.90;;;5.71;58.03;97557.78;6033893;23;20240;-79
2021/12/01 07:32:49;;;;;;;7.90;3.85;;;5.50;99.90;;;5.71;57.59;97557.00;6034472;23;20042;-79
2021/12/01 07:35:19;;;;;;;10.35;4.32;;;5.60;99.90;;;5.73;57.97;97561.03;6058142;23;20071;-79
2021/12/01 07:37:46;;;;;;;7.38;3.63;;;5.60;99.90;;;5.81;57.56;97552.38;6034349;23;20015;-79
2021/12/01 07:40:12;;;;;;;8.65;4.85;;;5.60;99.90;;;5.93;57.41;97551.25;6036591;23;20167;-79
2021/12/01 07:42:38;;;;;;;6.82;4.53;;;5.70;99.90;;;6.14;56.71;97539.41;6034922;23;20097;-79
2021/12/01 07:45:05;;;;;;;4.82;4.13;;;5.90;99.90;;;6.31;56.21;97528.28;6034173;23;20450;-79
2021/12/01 07:47:32;;;;;;;10.82;4.85;;;6.00;99.90;;;6.52;55.67;97528.97;6034798;23;20019;-79
2021/12/01 07:49:58;;;;;;;12.70;5.10;;;6.20;99.90;;;6.68;55.50;97519.69;6059783;23;20019;-79
2021/12/01 07:52:24;;;;;;;11.98;4.72;;;6.40;99.90;;;6.87;55.09;97513.63;6011219;23;20046;-79
2021/12/01 07:54:50;;;;;;;12.48;6.03;;;6.70;99.90;;;6.91;54.61;97499.31;6010233;23;20449;-79
2021/12/01 07:57:16;;;;;;;15.02;6.30;;;6.80;99.90;;;6.90;54.17;97488.84;6033026;23;20102;-79
2021/12/01 07:59:42;;;;;;;15.50;6.82;;;6.90;99.90;;;6.95;54.07;97489.59;6034906;23;20027;-79
2021/12/01 08:02:08;;;;;;;16.67;7.13;;;6.90;99.90;;;6.92;53.96;97492.03;6034067;23;20025;-79
2021/12/01 08:04:34;;;;;;;15.63;7.13;;;6.90;99.90;;;6.85;54.08;97488.88;6034081;23;20571;-79
2021/12/01 08:07:01;;;;;;;12.80;6.93;;;6.80;99.90;;;6.79;54.38;97488.09;6035270;23;20051;-79
2021/12/01 08:09:27;;;;;;;17.00;8.50;;;6.70;99.90;;;6.67;54.19;97484.97;6034591;23;20025;-79
2021/12/01 08:11:54;;;;;;;14.05;6.53;;;6.60;99.90;;;6.63;54.12;97487.41;6033018;23;20050;-79
2021/12/01 08:14:20;;;;;;;20.85;8.30;;;6.60;99.90;;;6.60;54.20;97482.56;6034933;23;20030;-79
2021/12/01 08:16:47;;;;;;;15.38;7.43;;;6.60;99.90;;;6.64;54.84;97477.41;6034876;23;20034;-79
2021/12/01 08:19:13;;;;;;;19.80;8.60;;;6.60;99.90;;;6.67;55.14;97466.91;6034422;23;20402;-79
2021/12/01 08:21:39;;;;;;;17.65;8.32;;;6.60;99.90;;;6.74;54.90;97467.41;6036252;23;20023;-79
2021/12/01 08:24:05;;;;;;;20.75;8.60;;;6.70;99.90;;;6.78;54.63;97474.91;6059969;23;20025;-79
2021/12/01 08:26:31;;;;;;;23.27;10.60;;;6.70;99.90;;;6.73;54.32;97473.84;6036033;23;20019;-79
2021/12/01 08:28:57;;;;;;;22.35;8.85;;;6.70;99.90;;;6.71;54.71;97469.84;6059863;23;20023;-80
2021/12/01 08:31:23;;;;;;;19.95;9.20;;;6.70;99.90;;;6.66;54.38;97470.66;6061051;23;20454;-79
2021/12/01 08:33:50;;;;;;;15.73;9.00;;;6.60;99.90;;;6.62;54.53;97474.22;6059584;23;20552;-79
2021/12/01 08:36:16;;;;;;;20.52;9.02;;;6.60;99.90;;;6.66;55.06;97480.66;6035379;23;20057;-79
2021/12/01 08:38:42;;;;;;;20.70;8.98;;;6.50;99.90;;;6.62;54.88;97482.31;6036746;23;20486;-79
2021/12/01 08:41:08;;;;;;;27.90;9.82;;;6.50;99.90;;;6.58;55.31;97479.34;6035431;23;20117;-79
2021/12/01 08:43:34;;;;;;;22.88;9.98;;;6.50;99.90;;;6.49;55.34;97471.06;6012040;23;20125;-80
2021/12/01 08:46:02;;;;;;;22.63;9.55;;;6.40;99.90;;;6.40;55.52;97478.13;6059512;23;20025;-79
2021/12/01 08:48:28;;;;;;;19.15;9.05;;;6.40;99.90;;;6.36;55.61;97478.94;6036968;23;20094;-79
2021/12/01 08:50:56;;;;;;;23.02;9.95;;;6.30;99.90;;;6.42;55.22;97472.47;6061164;23;20038;-79
2021/12/01 08:53:23;;;;;;;21.92;10.10;;;6.30;99.90;;;6.44;55.15;97467.63;6036693;23;20030;-79
2021/12/01 08:55:49;;;;;;;24.20;8.68;;;6.30;99.90;;;6.36;55.45;97463.63;6035943;23;20019;-79
2021/12/01 08:58:15;;;;;;;22.27;9.23;;;6.30;99.90;;;6.35;54.77;97469.28;6060071;23;20015;-79
2021/12/01 09:00:44;;;;;;;16.65;8.57;;;6.30;99.90;;;6.30;54.86;97467.41;6036306;23;20150;-79
2021/12/01 09:03:16;;;;;;;22.42;7.93;;;6.20;99.90;;;6.42;54.50;97456.31;6060064;23;20087;-79
2021/12/01 09:05:45;;;;;;;15.65;7.57;;;6.30;99.90;;;6.46;53.98;97454.66;6046310;23;20342;-79
2021/12/01 09:08:15;;;;;;;22.73;8.73;;;6.40;99.90;;;6.47;54.13;97456.28;6036851;23;20521;-79
2021/12/01 09:10:41;;;;;;;18.52;7.20;;;6.40;99.90;;;6.48;54.42;97447.91;6023028;23;20034;-79
2021/12/01 09:13:07;;;;;;;18.23;7.50;;;6.50;99.90;;;6.52;53.92;97438.19;6013198;23;20019;-78
2021/12/01 09:15:34;;;;;;;25.83;7.15;;;6.40;99.90;;;6.47;54.19;97435.53;6059210;23;20018;-77
2021/12/01 09:18:00;;;;;;;20.20;7.80;;;6.40;99.90;;;6.46;53.93;97433.09;6035879;23;20026;-77
2021/12/01 09:20:26;;;;;;;18.35;7.68;;;6.40;99.90;;;6.42;54.22;97434.75;6036319;23;20047;-77
2021/12/01 09:22:52;;;;;;;15.52;7.40;;;6.40;99.90;;;6.44;54.32;97436.09;6035101;23;20099;-77
2021/12/01 09:25:18;;;;;;;17.92;5.72;;;6.30;99.90;;;6.48;54.12;97444.41;6011648;23;20138;-79
2021/12/01 09:27:45;;;;;;;14.30;6.72;;;6.40;99.90;;;6.53;54.28;97439.78;6036206;23;20023;-80
2021/12/01 09:30:12;;;;;;;14.48;6.47;;;6.40;99.90;;;6.65;54.24;97436.72;6036501;23;20042;-80
2021/12/01 09:32:38;;;;;;;11.48;6.07;;;6.40;99.90;;;6.71;53.71;97435.59;6012721;23;20023;-79
2021/12/01 09:35:06;;;;;;;14.27;6.03;;;6.50;99.90;;;6.74;53.17;97431.53;6036260;23;20023;-79
2021/12/01 09:37:32;;;;;;;12.77;5.80;;;6.50;99.90;;;6.81;53.79;97421.25;6035398;23;20050;-80
2021/12/01 09:39:58;;;;;;;14.50;6.00;;;6.60;99.90;;;7.05;52.68;97421.31;6036195;23;20485;-80
2021/12/01 09:42:24;;;;;;;18.00;5.57;;;6.80;99.90;;;7.30;52.43;97408.63;6059610;23;20019;-79
2021/12/01 09:44:51;;;;;;;12.38;4.10;;;7.00;99.90;;;7.58;51.99;97407.81;6034023;23;20053;-79
2021/12/01 09:47:19;;;;;;;20.38;5.68;;;7.20;99.90;;;7.92;52.14;97398.72;6035862;23;20023;-79
2021/12/01 09:49:46;;;;;;;17.73;4.65;;;7.60;99.90;;;8.23;50.53;97398.31;6035895;23;20071;-79
2021/12/01 09:52:12;;;;;;;9.02;4.55;;;7.90;99.90;;;8.43;49.57;97389.13;6037557;23;20051;-80
2021/12/01 09:54:39;;;;;;;9.75;3.65;;;8.20;99.90;;;8.59;49.12;97385.06;6036844;23;20019;-80
2021/12/01 09:57:07;;;;;;;13.60;4.90;;;8.50;99.90;;;8.73;48.05;97378.91;6034930;23;20023;-80
2021/12/01 09:59:33;;;;;;;11.85;4.43;;;8.60;99.90;;;8.88;47.46;97382.16;6059915;23;20105;-80
2021/12/01 10:01:59;;;;;;;16.00;5.30;;;8.80;99.90;;;8.97;47.01;97386.88;6013205;23;20147;-80
2021/12/01 10:04:25;;;;;;;14.55;5.32;;;8.80;99.90;;;9.11;47.39;97379.59;6062286;23;20023;-80
2021/12/01 10:06:55;;;;;;;17.33;7.28;;;9.00;99.90;;;9.24;46.87;97370.69;6059202;23;20019;-80
2021/12/01 10:09:21;;;;;;;15.48;5.78;;;9.10;99.90;;;9.28;46.75;97368.97;6055568;23;20371;-80
2021/12/01 10:11:47;;;;;;;9.50;4.82;;;9.20;99.90;;;9.40;46.27;97373.09;6035084;23;20025;-80
2021/12/01 10:14:20;;;;;;;10.73;4.60;;;9.30;99.90;;;9.63;45.99;97379.41;6035646;23;20443;-80
2021/12/01 10:16:50;;;;;;;12.13;4.72;;;9.30;99.90;;;9.65;45.90;97369.88;6034606;23;20022;-80
2021/12/01 10:19:17;;;;;;;13.00;4.30;;;9.40;99.90;;;9.70;44.71;97375.19;6064769;23;20065;-81
2021/12/01 10:21:47;;;;;;;13.48;5.30;;;9.50;99.70;;;9.82;45.41;97360.31;6035077;23;20106;-81
2021/12/01 10:24:24;;;;;;;10.65;4.07;;;9.60;99.40;;;9.88;44.13;97359.13;6034474;23;20025;-81
2021/12/01 10:26:55;;;;;;;9.93;4.15;;;9.70;98.90;;;9.90;44.19;97356.91;6045498;23;20494;-80
2021/12/01 10:29:27;;;;;;;18.27;5.88;;;9.70;98.30;;;10.08;43.85;97353.25;6068185;23;20581;-81
2021/12/01 10:31:55;;;;;;;15.88;5.47;;;9.90;98.30;;;10.17;44.13;97351.41;6035648;23;20043;-79
2021/12/01 10:34:21;;;;;;;16.10;5.75;;;10.10;97.40;;;10.26;43.33;97331.72;6059462;23;20435;-79
2021/12/01 10:37:07;;;;;;;12.35;5.50;;;10.20;96.90;;;10.30;43.04;97340.84;6081568;23;20347;-79